Time;durP1;ratioP1;P1;durP2;ratioP2;P2;SDS_P1;SDS_P2;PMS_P1;PMS_P2;Temp;Humidity;BMP_temperature;BMP_pressure;BME280_temperature;BME280_humidity;BME280_pressure;Samples;Min_cycle;Max_cycle;Signal;HPM_P1;HPM_P2
2023/12/19 00:01:29;;;;;;;26.80;2.93;;;11.80;99.90;;;;;;4993868;28;20218;-89
2023/12/19 00:03:55;;;;;;;2.50;2.10;;;11.80;99.90;;;;;;5007069;28;20228;-89
2023/12/19 00:06:21;;;;;;;6.80;2.97;;;11.70;99.90;;;;;;5009903;28;20218;-89
2023/12/19 00:08:46;;;;;;;5.43;1.50;;;11.80;99.90;;;;;;5026742;28;20221;-88
2023/12/19 00:11:12;;;;;;;3.30;1.30;;;11.80;99.90;;;;;;5011030;28;20700;-88
2023/12/19 00:13:38;;;;;;;10.47;1.23;;;11.70;99.90;;;;;;5010068;28;20214;-88
2023/12/19 00:16:04;;;;;;;1.90;1.43;;;11.80;99.90;;;;;;5009917;28;20210;-88
2023/12/19 00:18:30;;;;;;;3.07;1.73;;;11.80;99.90;;;;;;5042637;28;20772;-88
2023/12/19 00:20:56;;;;;;;2.87;1.60;;;11.90;99.90;;;;;;5004891;28;20194;-88
2023/12/19 00:23:22;;;;;;;6.03;1.83;;;11.70;99.90;;;;;;5010383;28;20214;-89
2023/12/19 00:25:48;;;;;;;2.13;1.97;;;11.90;99.90;;;;;;5044080;28;20229;-88
2023/12/19 00:28:14;;;;;;;5.20;2.43;;;11.80;99.90;;;;;;5017432;28;20230;-89
2023/12/19 00:30:40;;;;;;;3.53;2.20;;;11.90;99.90;;;;;;5026213;28;20230;-88
2023/12/19 00:33:06;;;;;;;1.70;1.47;;;11.90;99.90;;;;;;5009426;28;20704;-90
2023/12/19 00:35:33;;;;;;;1.40;1.00;;;11.90;99.90;;;;;;5026420;28;20677;-89
2023/12/19 00:38:02;;;;;;;7.30;1.10;;;11.80;99.90;;;;;;5042230;28;20742;-88
2023/12/19 00:40:27;;;;;;;4.53;2.77;;;11.90;99.90;;;;;;5044442;28;20213;-89
2023/12/19 00:42:53;;;;;;;10.40;1.57;;;11.80;99.90;;;;;;5025444;28;20236;-89
2023/12/19 00:45:19;;;;;;;4.07;2.93;;;11.80;99.90;;;;;;5009982;28;20275;-89
2023/12/19 00:47:45;;;;;;;1.20;1.10;;;11.80;99.90;;;;;;5045108;28;20194;-89
2023/12/19 00:50:13;;;;;;;2.47;2.27;;;11.80;99.90;;;;;;5027653;28;20633;-90
2023/12/19 00:52:38;;;;;;;5.50;1.53;;;11.90;99.90;;;;;;5045585;28;20670;-89
2023/12/19 00:55:05;;;;;;;5.57;2.53;;;11.90;99.90;;;;;;4996557;28;20220;-90
2023/12/19 00:57:31;;;;;;;6.77;2.00;;;11.80;99.90;;;;;;5026479;28;20221;-89
2023/12/19 00:59:57;;;;;;;2.20;2.03;;;11.90;99.90;;;;;;5044570;28;20186;-90
2023/12/19 01:02:23;;;;;;;3.13;1.20;;;11.90;99.90;;;;;;5030336;28;20213;-90
2023/12/19 01:04:49;;;;;;;1.73;1.63;;;11.80;99.90;;;;;;5046368;28;20236;-91
2023/12/19 01:07:15;;;;;;;4.77;2.87;;;11.80;99.90;;;;;;5011939;28;20222;-91
2023/12/19 01:09:41;;;;;;;3.27;2.60;;;11.90;99.90;;;;;;5029514;28;20708;-90
2023/12/19 01:12:07;;;;;;;2.23;1.53;;;11.70;99.90;;;;;;5029192;28;20229;-90
2023/12/19 01:14:33;;;;;;;2.50;2.30;;;11.70;99.90;;;;;;5012468;28;21072;-90
2023/12/19 01:16:58;;;;;;;1.40;1.30;;;11.70;99.90;;;;;;5012756;28;20222;-88
2023/12/19 01:19:24;;;;;;;3.77;2.17;;;11.50;99.90;;;;;;5029097;28;20245;-89
2023/12/19 01:21:50;;;;;;;4.93;2.60;;;11.50;99.90;;;;;;5028376;28;20218;-90
2023/12/19 01:24:16;;;;;;;2.37;1.80;;;11.40;99.90;;;;;;5028074;28;20283;-88
2023/12/19 01:26:42;;;;;;;2.10;1.90;;;11.40;99.90;;;;;;5013002;28;20194;-88
2023/12/19 01:29:07;;;;;;;2.47;1.50;;;11.50;99.90;;;;;;5012405;28;20304;-89
2023/12/19 01:31:36;;;;;;;2.40;2.30;;;11.30;99.90;;;;;;4995722;28;20349;-89
2023/12/19 01:34:01;;;;;;;2.50;1.43;;;11.40;99.90;;;;;;5044285;28;20228;-89
2023/12/19 01:36:27;;;;;;;2.40;1.80;;;11.50;99.90;;;;;;5022722;28;20221;-89
2023/12/19 01:38:53;;;;;;;1.03;0.90;;;11.50;99.90;;;;;;5012382;28;20863;-89
2023/12/19 01:41:19;;;;;;;2.37;2.20;;;11.50;99.90;;;;;;5005046;28;20198;-89
2023/12/19 01:43:45;;;;;;;1.30;1.13;;;11.40;99.90;;;;;;4996148;28;20237;-89
2023/12/19 01:46:15;;;;;;;1.80;1.30;;;11.40;99.90;;;;;;5028993;28;20320;-90
2023/12/19 01:48:42;;;;;;;6.07;1.90;;;11.50;99.90;;;;;;5027082;28;20229;-90
2023/12/19 01:51:11;;;;;;;1.77;1.70;;;11.40;99.90;;;;;;5027456;28;20279;-89
2023/12/19 01:53:37;;;;;;;1.40;1.23;;;11.50;99.90;;;;;;5013111;28;20221;-89
2023/12/19 01:56:04;;;;;;;2.90;2.23;;;11.50;99.90;;;;;;5028744;28;20677;-89
2023/12/19 01:58:30;;;;;;;1.60;1.47;;;11.40;99.90;;;;;;5020095;28;20225;-90
2023/12/19 02:00:57;;;;;;;1.93;1.60;;;11.20;99.90;;;;;;5011405;28;20213;-88
2023/12/19 02:03:23;;;;;;;0.53;0.53;;;11.40;99.90;;;;;;5046014;28;20698;-88
2023/12/19 02:05:51;;;;;;;1.40;1.40;;;11.40;99.90;;;;;;5021522;28;20194;-89
2023/12/19 02:08:17;;;;;;;1.90;1.67;;;11.20;99.90;;;;;;5028354;28;20658;-88
2023/12/19 02:10:43;;;;;;;3.53;1.97;;;11.20;99.90;;;;;;4995672;28;20233;-89
2023/12/19 02:13:10;;;;;;;2.67;2.03;;;11.30;99.90;;;;;;5044964;28;20257;-90
2023/12/19 02:15:37;;;;;;;2.40;1.87;;;11.30;99.90;;;;;;5011555;28;20279;-88
2023/12/19 02:18:16;;;;;;;2.97;1.53;;;11.10;99.90;;;;;;5028918;28;20256;-90
2023/12/19 02:20:42;;;;;;;1.03;1.03;;;11.10;99.90;;;;;;5028444;28;20285;-89
2023/12/19 02:23:12;;;;;;;1.60;1.07;;;11.10;99.90;;;;;;5027805;28;20237;-90
2023/12/19 02:25:38;;;;;;;1.37;1.30;;;11.20;99.90;;;;;;5027684;28;20222;-89
2023/12/19 02:28:05;;;;;;;4.07;2.03;;;11.10;99.90;;;;;;5028071;28;20355;-89
2023/12/19 02:30:31;;;;;;;2.33;1.90;;;11.30;99.90;;;;;;5028018;28;20228;-88
2023/12/19 02:32:58;;;;;;;1.97;1.80;;;11.30;99.90;;;;;;5027251;28;20646;-90
2023/12/19 02:35:24;;;;;;;1.17;1.17;;;11.20;99.90;;;;;;5045636;28;20194;-89
2023/12/19 02:37:50;;;;;;;2.20;1.90;;;11.30;99.90;;;;;;4987436;28;20225;-89
2023/12/19 02:40:16;;;;;;;5.00;2.30;;;11.30;99.90;;;;;;5028593;28;20247;-90
2023/12/19 02:42:42;;;;;;;2.30;2.10;;;11.30;99.90;;;;;;5025427;28;20316;-89
2023/12/19 02:45:11;;;;;;;2.33;1.80;;;11.10;99.90;;;;;;5026728;28;20221;-89
2023/12/19 02:47:38;;;;;;;2.40;2.20;;;11.20;99.90;;;;;;5009381;28;20308;-90
2023/12/19 02:50:04;;;;;;;4.77;2.50;;;11.10;99.90;;;;;;5041785;28;20237;-91
2023/12/19 02:52:30;;;;;;;4.03;2.47;;;11.20;99.90;;;;;;5008555;28;20214;-89
2023/12/19 02:54:55;;;;;;;2.30;1.73;;;11.30;99.90;;;;;;4994430;28;20220;-90
2023/12/19 02:57:21;;;;;;;3.83;1.90;;;11.20;99.90;;;;;;5017884;28;20214;-89
2023/12/19 02:59:47;;;;;;;2.47;2.27;;;11.30;99.90;;;;;;5026758;28;20296;-90
2023/12/19 03:02:13;;;;;;;1.20;0.97;;;11.30;99.90;;;;;;5043796;28;20626;-88
2023/12/19 03:04:39;;;;;;;2.20;2.07;;;11.10;99.90;;;;;;4994598;28;20225;-90
2023/12/19 03:07:04;;;;;;;3.30;2.07;;;11.10;99.90;;;;;;5009594;28;20263;-91
2023/12/19 03:09:30;;;;;;;2.00;1.87;;;11.00;99.90;;;;;;5003489;28;20898;-90
2023/12/19 03:12:04;;;;;;;0.87;0.83;;;11.00;99.90;;;;;;5023762;28;20190;-89
2023/12/19 03:14:31;;;;;;;2.80;1.30;;;11.20;99.90;;;;;;5008984;28;20210;-90
2023/12/19 03:16:56;;;;;;;2.47;1.33;;;11.10;99.90;;;;;;5044366;28;20704;-90
2023/12/19 03:19:22;;;;;;;9.57;1.67;;;11.10;99.90;;;;;;5010824;28;20217;-88
2023/12/19 03:21:48;;;;;;;0.77;0.67;;;11.00;99.90;;;;;;5009998;28;20229;-90
2023/12/19 03:24:14;;;;;;;1.37;1.27;;;11.30;99.90;;;;;;5010173;28;20229;-89
2023/12/19 03:26:39;;;;;;;1.03;0.90;;;11.00;99.90;;;;;;5027612;28;20194;-89
2023/12/19 03:29:05;;;;;;;2.30;1.37;;;11.20;99.90;;;;;;5002016;28;20685;-91
2023/12/19 03:31:31;;;;;;;0.47;0.47;;;11.10;99.90;;;;;;5010979;28;20230;-88
2023/12/19 03:33:57;;;;;;;2.27;1.80;;;11.10;99.90;;;;;;5010673;28;20278;-91
2023/12/19 03:36:23;;;;;;;2.83;2.23;;;11.00;99.90;;;;;;4981071;28;20245;-90
2023/12/19 03:38:49;;;;;;;1.73;1.20;;;10.90;99.90;;;;;;5026591;28;20273;-89
2023/12/19 03:41:15;;;;;;;1.80;1.37;;;10.90;99.90;;;;;;5043856;28;20194;-89
2023/12/19 03:43:41;;;;;;;4.37;1.43;;;10.90;99.90;;;;;;5010861;28;20243;-89
2023/12/19 03:46:07;;;;;;;1.73;1.63;;;11.00;99.90;;;;;;5026626;28;20303;-89
2023/12/19 03:48:36;;;;;;;2.47;1.87;;;11.00;99.90;;;;;;5027255;28;20239;-90
2023/12/19 03:51:03;;;;;;;1.67;1.37;;;11.00;99.90;;;;;;5044795;28;20275;-90
2023/12/19 03:53:29;;;;;;;2.43;2.27;;;10.90;99.90;;;;;;5045478;28;20186;-88
2023/12/19 03:55:55;;;;;;;3.80;2.30;;;10.90;99.90;;;;;;5009913;28;20471;-89
2023/12/19 03:58:21;;;;;;;1.37;1.27;;;11.00;99.90;;;;;;5026614;28;20228;-90
2023/12/19 04:00:48;;;;;;;1.90;0.97;;;11.00;99.90;;;;;;5026939;28;20214;-88
2023/12/19 04:03:14;;;;;;;3.17;2.40;;;10.90;99.90;;;;;;5026294;28;20238;-90
2023/12/19 04:05:40;;;;;;;2.93;1.17;;;11.00;99.90;;;;;;5010958;28;20182;-89
2023/12/19 04:08:06;;;;;;;1.60;1.50;;;10.90;99.90;;;;;;5010805;28;20217;-89
2023/12/19 04:10:32;;;;;;;1.13;0.90;;;10.80;99.90;;;;;;5043038;28;20226;-90
2023/12/19 04:12:57;;;;;;;3.60;1.33;;;11.00;99.90;;;;;;5000854;28;20228;-90
2023/12/19 04:15:24;;;;;;;1.67;1.03;;;10.80;99.90;;;;;;5010398;28;21027;-88
2023/12/19 04:17:50;;;;;;;2.30;1.43;;;10.80;99.90;;;;;;5010364;28;20196;-89
2023/12/19 04:20:15;;;;;;;1.30;1.17;;;11.00;99.90;;;;;;5010852;28;20194;-87
2023/12/19 04:22:42;;;;;;;2.00;1.80;;;11.00;99.90;;;;;;5026410;28;20226;-89
2023/12/19 04:25:08;;;;;;;2.17;1.30;;;11.00;99.90;;;;;;5005445;28;20226;-90
2023/12/19 04:27:34;;;;;;;3.27;1.90;;;10.90;99.90;;;;;;5028836;28;20387;-90
2023/12/19 04:30:00;;;;;;;2.10;1.43;;;11.00;99.90;;;;;;4995898;28;20194;-90
2023/12/19 04:32:26;;;;;;;1.40;1.30;;;11.00;99.90;;;;;;5030623;28;20584;-89
2023/12/19 04:34:51;;;;;;;3.63;2.73;;;11.00;99.90;;;;;;5030544;28;20218;-90
2023/12/19 04:37:17;;;;;;;1.17;1.17;;;10.80;99.90;;;;;;5013786;28;20229;-89
2023/12/19 04:39:43;;;;;;;2.10;1.90;;;10.90;99.90;;;;;;5014450;28;20617;-90
2023/12/19 04:42:09;;;;;;;2.57;2.37;;;10.80;99.90;;;;;;5030185;28;21081;-90
2023/12/19 04:44:35;;;;;;;1.87;1.77;;;11.00;99.90;;;;;;5015081;28;20194;-89
2023/12/19 04:47:01;;;;;;;2.60;2.40;;;11.00;99.90;;;;;;5030182;28;20252;-90
2023/12/19 04:49:26;;;;;;;1.63;1.50;;;10.90;99.90;;;;;;5029761;28;20279;-89
2023/12/19 04:51:52;;;;;;;3.80;2.57;;;11.00;99.90;;;;;;5013522;28;20224;-89
2023/12/19 04:54:18;;;;;;;3.63;1.77;;;11.00;99.90;;;;;;5013420;28;20245;-90
2023/12/19 04:56:44;;;;;;;3.97;2.83;;;11.10;99.90;;;;;;5014329;28;20217;-89
2023/12/19 04:59:09;;;;;;;1.33;1.23;;;10.90;99.90;;;;;;4990236;28;20217;-89
2023/12/19 05:01:39;;;;;;;1.87;1.10;;;11.10;99.90;;;;;;5021720;28;20218;-88
2023/12/19 05:04:06;;;;;;;1.83;1.73;;;10.90;99.90;;;;;;5030124;28;20232;-90
2023/12/19 05:06:33;;;;;;;0.97;0.97;;;11.10;99.90;;;;;;5013293;28;20806;-88
2023/12/19 05:08:58;;;;;;;2.57;1.63;;;11.00;99.90;;;;;;5029791;28;20992;-90
2023/12/19 05:11:24;;;;;;;1.33;1.23;;;11.00;99.90;;;;;;5006323;28;20198;-90
2023/12/19 05:13:50;;;;;;;2.03;1.60;;;11.00;99.90;;;;;;5022947;28;20237;-89
2023/12/19 05:16:17;;;;;;;1.87;1.77;;;11.20;99.90;;;;;;5013282;28;20229;-90
2023/12/19 05:18:44;;;;;;;2.00;1.87;;;11.00;99.90;;;;;;5029397;28;20596;-89
2023/12/19 05:21:11;;;;;;;2.90;1.50;;;11.00;99.90;;;;;;5042785;28;20232;-89
2023/12/19 05:23:38;;;;;;;1.40;1.40;;;11.10;99.90;;;;;;5046539;28;20283;-89
2023/12/19 05:26:05;;;;;;;1.17;1.17;;;11.10;99.90;;;;;;5028768;28;20244;-88
2023/12/19 05:28:32;;;;;;;4.67;2.77;;;11.00;99.90;;;;;;5045404;28;20238;-89
2023/12/19 05:30:57;;;;;;;1.00;0.90;;;11.00;99.90;;;;;;5027303;28;20367;-89
2023/12/19 05:33:25;;;;;;;2.60;1.80;;;11.10;99.90;;;;;;4995352;28;20225;-88
2023/12/19 05:35:53;;;;;;;1.70;1.60;;;11.00;99.90;;;;;;5046338;28;20214;-88
2023/12/19 05:38:19;;;;;;;0.73;0.73;;;11.10;99.90;;;;;;5012539;28;20230;-89
2023/12/19 05:40:45;;;;;;;1.17;1.07;;;11.00;99.90;;;;;;5012032;28;20992;-89
2023/12/19 05:43:12;;;;;;;1.53;1.43;;;11.00;99.90;;;;;;5012498;28;20367;-90
2023/12/19 05:45:38;;;;;;;0.40;0.40;;;11.10;99.90;;;;;;5046169;28;20222;-87
2023/12/19 05:48:04;;;;;;;1.80;1.00;;;11.10;99.90;;;;;;5012528;28;20551;-88
2023/12/19 05:50:30;;;;;;;2.07;0.70;;;11.20;99.90;;;;;;5029536;28;20205;-87
2023/12/19 05:52:56;;;;;;;2.90;1.10;;;11.10;99.90;;;;;;5045381;28;20603;-90
2023/12/19 05:55:22;;;;;;;2.50;2.07;;;11.30;99.90;;;;;;5012825;28;20221;-89
2023/12/19 05:57:47;;;;;;;0.97;0.87;;;11.10;99.90;;;;;;5004440;28;20326;-89
2023/12/19 06:00:15;;;;;;;2.50;1.23;;;11.30;99.90;;;;;;4996404;28;20217;-90
2023/12/19 06:02:41;;;;;;;0.93;0.73;;;11.30;99.90;;;;;;5046366;28;20222;-90
2023/12/19 06:05:07;;;;;;;0.50;0.50;;;11.30;99.90;;;;;;5045979;28;20226;-90
2023/12/19 06:07:37;;;;;;;3.17;1.03;;;11.30;99.90;;;;;;4995499;28;20992;-90
2023/12/19 06:10:10;;;;;;;1.27;1.13;;;11.20;99.90;;;;;;5012410;28;20271;-89
2023/12/19 06:12:36;;;;;;;0.83;0.80;;;11.40;99.90;;;;;;5046197;28;20275;-89
2023/12/19 06:15:08;;;;;;;0.77;0.40;;;11.20;99.90;;;;;;5026157;28;20457;-90
2023/12/19 06:17:34;;;;;;;0.70;0.50;;;11.30;99.90;;;;;;5012209;28;20196;-90
2023/12/19 06:20:00;;;;;;;0.40;0.40;;;11.50;99.90;;;;;;5012016;28;20218;-88
2023/12/19 06:22:25;;;;;;;1.17;0.90;;;11.40;99.90;;;;;;4995159;28;20283;-90
2023/12/19 06:24:51;;;;;;;2.03;0.77;;;11.40;99.90;;;;;;5012339;28;20280;-90
2023/12/19 06:27:17;;;;;;;0.40;0.40;;;11.50;99.90;;;;;;5027589;28;20322;-89
2023/12/19 06:29:43;;;;;;;0.77;0.77;;;11.50;99.90;;;;;;5005946;28;20193;-89
2023/12/19 06:32:10;;;;;;;1.13;1.03;;;11.40;99.90;;;;;;5020694;28;20221;-89
2023/12/19 06:34:36;;;;;;;0.67;0.67;;;11.50;99.90;;;;;;5027682;28;20217;-90
2023/12/19 06:37:02;;;;;;;1.20;1.10;;;11.40;99.90;;;;;;5027598;28;20221;-89
2023/12/19 06:39:28;;;;;;;1.37;1.27;;;11.60;99.90;;;;;;5027780;28;21099;-88
2023/12/19 06:41:54;;;;;;;0.73;0.73;;;11.40;99.90;;;;;;5027642;28;20320;-88
2023/12/19 06:44:20;;;;;;;1.93;0.87;;;11.50;99.90;;;;;;4995152;28;20274;-89
2023/12/19 06:46:49;;;;;;;1.03;0.67;;;11.40;99.90;;;;;;5045279;28;20253;-88
2023/12/19 06:49:19;;;;;;;0.93;0.93;;;11.60;99.90;;;;;;5026853;28;20214;-87
2023/12/19 06:51:44;;;;;;;0.90;0.77;;;11.50;99.90;;;;;;5001579;28;20267;-88
2023/12/19 06:54:10;;;;;;;1.00;0.80;;;11.50;99.90;;;;;;5035484;28;20906;-89
2023/12/19 06:56:36;;;;;;;0.50;0.50;;;11.60;99.90;;;;;;5044353;28;20197;-89
2023/12/19 06:59:03;;;;;;;1.40;1.07;;;11.50;99.90;;;;;;5011247;28;20232;-90
2023/12/19 07:01:29;;;;;;;0.60;0.60;;;11.60;99.90;;;;;;4995083;28;20210;-91
2023/12/19 07:03:55;;;;;;;1.07;0.97;;;11.70;99.90;;;;;;5027126;28;20247;-90
2023/12/19 07:06:21;;;;;;;1.53;0.90;;;11.70;99.90;;;;;;5025756;28;20218;-90
2023/12/19 07:08:47;;;;;;;1.50;0.97;;;11.80;99.90;;;;;;5024031;28;20195;-91
2023/12/19 07:11:14;;;;;;;0.80;0.70;;;11.70;99.90;;;;;;5010744;28;20197;-91
2023/12/19 07:13:40;;;;;;;1.07;0.93;;;11.80;99.90;;;;;;5010164;28;20246;-91
2023/12/19 07:16:06;;;;;;;1.53;1.43;;;11.70;99.90;;;;;;5037534;28;20229;-91
2023/12/19 07:18:32;;;;;;;1.77;1.37;;;11.80;99.90;;;;;;5009906;28;21135;-92
2023/12/19 07:20:58;;;;;;;0.80;0.80;;;11.80;99.90;;;;;;5009707;28;20186;-92
2023/12/19 07:23:25;;;;;;;0.70;0.67;;;11.70;99.90;;;;;;5009632;28;20665;-91
2023/12/19 07:25:51;;;;;;;0.97;0.87;;;11.70;99.90;;;;;;5009202;28;20608;-91
2023/12/19 07:28:17;;;;;;;1.83;1.30;;;11.80;99.90;;;;;;5025489;28;20226;-89
2023/12/19 07:30:42;;;;;;;2.00;0.80;;;11.70;99.90;;;;;;5009203;28;20230;-91
2023/12/19 07:33:08;;;;;;;0.77;0.77;;;11.70;99.90;;;;;;5025610;28;20221;-91
2023/12/19 07:35:34;;;;;;;1.03;1.03;;;11.70;99.90;;;;;;5026841;28;20209;-89
2023/12/19 07:37:59;;;;;;;1.30;1.13;;;11.80;99.90;;;;;;4993841;28;20217;-92
2023/12/19 07:40:26;;;;;;;10.60;1.33;;;11.80;99.90;;;;;;5010222;28;20241;-90
2023/12/19 07:42:51;;;;;;;1.30;1.27;;;11.50;99.90;;;;;;5025714;28;20589;-90
2023/12/19 07:45:18;;;;;;;2.63;0.97;;;11.70;99.90;;;;;;5009383;28;20218;-90
2023/12/19 07:47:44;;;;;;;1.50;0.80;;;11.70;99.90;;;;;;5010855;28;20182;-90
2023/12/19 07:50:12;;;;;;;3.27;1.90;;;11.80;99.90;;;;;;5026199;28;20218;-91
2023/12/19 07:52:38;;;;;;;1.33;1.00;;;11.60;99.90;;;;;;5026801;28;20224;-92
2023/12/19 07:55:09;;;;;;;1.07;1.07;;;11.60;99.90;;;;;;5010631;28;20247;-91
2023/12/19 07:57:37;;;;;;;1.20;1.13;;;11.70;99.90;;;;;;5034128;28;20690;-91
2023/12/19 08:00:04;;;;;;;3.03;1.50;;;11.60;99.90;;;;;;5043016;28;20242;-91
2023/12/19 08:02:32;;;;;;;2.17;1.97;;;11.70;99.90;;;;;;5029289;28;20221;-91
2023/12/19 08:04:58;;;;;;;2.40;2.10;;;11.80;99.90;;;;;;5005912;28;20226;-90
2023/12/19 08:07:24;;;;;;;2.03;1.03;;;11.70;99.90;;;;;;5028941;28;20214;-90
2023/12/19 08:09:50;;;;;;;1.00;1.00;;;11.80;99.90;;;;;;5027842;28;20685;-93
2023/12/19 08:12:18;;;;;;;1.80;1.70;;;11.80;99.90;;;;;;5029291;28;20226;-90
2023/12/19 08:14:44;;;;;;;1.90;1.10;;;11.80;99.90;;;;;;5029241;28;20634;-92
2023/12/19 08:17:10;;;;;;;2.10;1.70;;;11.80;99.90;;;;;;5026600;28;20217;-92
2023/12/19 08:19:37;;;;;;;1.93;1.07;;;11.80;99.90;;;;;;5029362;28;20690;-91
2023/12/19 08:22:03;;;;;;;3.10;2.33;;;11.80;99.90;;;;;;5028639;28;20220;-90
2023/12/19 08:24:29;;;;;;;2.20;2.10;;;11.90;99.90;;;;;;5044432;28;20225;-92
2023/12/19 08:26:55;;;;;;;5.37;1.40;;;11.80;99.90;;;;;;5027894;28;20214;-90
2023/12/19 08:29:21;;;;;;;6.80;2.13;;;11.80;99.90;;;;;;5046310;28;20230;-92
2023/12/19 08:31:47;;;;;;;2.53;2.00;;;11.80;99.90;;;;;;5029017;28;20615;-91
2023/12/19 08:34:17;;;;;;;4.50;2.33;;;11.70;99.90;;;;;;5029247;28;20267;-93
2023/12/19 08:36:44;;;;;;;5.67;2.33;;;11.80;99.90;;;;;;5027834;28;20217;-91
2023/12/19 08:39:10;;;;;;;1.40;1.07;;;11.90;99.90;;;;;;5029259;28;20226;-92
2023/12/19 08:41:37;;;;;;;1.10;1.03;;;11.80;99.90;;;;;;5029151;28;20798;-89
2023/12/19 08:44:03;;;;;;;1.43;1.00;;;11.90;99.90;;;;;;5028332;28;20225;-89
2023/12/19 08:46:29;;;;;;;2.50;2.30;;;11.80;99.90;;;;;;5012855;28;20210;-91
2023/12/19 08:48:55;;;;;;;3.17;2.10;;;11.90;99.90;;;;;;5013443;28;20332;-89
2023/12/19 08:51:21;;;;;;;3.87;1.93;;;11.70;99.90;;;;;;5012872;28;20352;-92
2023/12/19 08:53:49;;;;;;;3.03;1.60;;;11.80;99.90;;;;;;5043668;28;20192;-91
2023/12/19 08:56:15;;;;;;;2.47;2.03;;;11.80;99.90;;;;;;5013216;28;20186;-92
2023/12/19 08:58:43;;;;;;;2.47;2.27;;;11.80;99.90;;;;;;5029019;28;20245;-93
2023/12/19 09:01:09;;;;;;;2.80;2.40;;;11.90;99.90;;;;;;5013149;28;20666;-93
2023/12/19 09:03:35;;;;;;;0.80;0.80;;;11.90;99.90;;;;;;5013210;28;20287;-94
2023/12/19 09:06:01;;;;;;;2.30;1.60;;;11.80;99.90;;;;;;5046528;28;20197;-93
2023/12/19 09:08:26;;;;;;;1.47;1.37;;;11.90;99.90;;;;;;5013724;28;20182;-94
2023/12/19 09:10:52;;;;;;;3.10;2.03;;;11.80;99.90;;;;;;5027363;28;20222;-92
2023/12/19 09:13:20;;;;;;;1.93;1.40;;;12.00;99.90;;;;;;5044788;28;20629;-92
2023/12/19 09:15:46;;;;;;;1.80;1.63;;;11.90;99.90;;;;;;5023477;28;20214;-93
2023/12/19 09:18:12;;;;;;;2.50;2.10;;;11.90;99.90;;;;;;5013126;28;20696;-92
2023/12/19 09:20:38;;;;;;;9.87;2.23;;;12.00;99.90;;;;;;5045304;28;20189;-91
2023/12/19 09:23:05;;;;;;;5.53;1.30;;;12.10;99.90;;;;;;5043792;28;20224;-92
2023/12/19 09:25:30;;;;;;;1.77;1.00;;;12.10;99.90;;;;;;5011580;28;20597;-91
2023/12/19 09:27:56;;;;;;;4.47;1.73;;;12.00;99.90;;;;;;5011834;28;20234;-92
2023/12/19 09:30:23;;;;;;;1.23;1.17;;;12.10;99.90;;;;;;5044048;28;20218;-92
2023/12/19 09:32:49;;;;;;;1.63;1.10;;;12.00;99.90;;;;;;5027468;28;20193;-92
2023/12/19 09:35:15;;;;;;;1.00;1.00;;;12.10;99.90;;;;;;5028164;28;20186;-95
2023/12/19 09:37:41;;;;;;;0.90;0.83;;;12.10;99.90;;;;;;5027676;28;20992;-92
2023/12/19 09:40:19;;;;;;;1.50;1.10;;;12.10;99.90;;;;;;5027815;28;20213;-92
2023/12/19 09:42:48;;;;;;;1.40;1.30;;;12.10;99.90;;;;;;5044117;28;20233;-93
2023/12/19 09:45:14;;;;;;;0.20;0.20;;;12.10;99.90;;;;;;5012095;28;20398;-92
2023/12/19 09:47:41;;;;;;;1.43;1.33;;;12.00;99.90;;;;;;5010512;28;20197;-91
2023/12/19 09:50:13;;;;;;;2.17;1.10;;;12.20;99.90;;;;;;5044267;28;20304;-92
2023/12/19 09:52:43;;;;;;;0.90;0.90;;;12.10;99.90;;;;;;5027481;28;20626;-91
2023/12/19 09:55:10;;;;;;;1.87;1.77;;;12.10;99.90;;;;;;5026898;28;20227;-91
2023/12/19 09:57:37;;;;;;;1.67;1.57;;;12.30;99.90;;;;;;5044223;28;20355;-91
2023/12/19 10:00:08;;;;;;;2.13;1.93;;;12.30;99.90;;;;;;5011965;28;20639;-91
2023/12/19 10:02:34;;;;;;;2.13;1.47;;;12.20;99.90;;;;;;5029166;28;20178;-93
2023/12/19 10:05:00;;;;;;;4.20;2.47;;;12.20;99.90;;;;;;5011048;28;20628;-90
2023/12/19 10:07:29;;;;;;;1.87;1.73;;;12.20;99.90;;;;;;5010207;28;20229;-91
2023/12/19 10:09:55;;;;;;;3.33;1.63;;;12.20;99.90;;;;;;5045335;28;20332;-93
2023/12/19 10:12:21;;;;;;;1.33;1.23;;;12.10;99.90;;;;;;5043894;28;20222;-92
2023/12/19 10:14:47;;;;;;;2.90;2.10;;;12.20;99.90;;;;;;5045939;28;20184;-92
2023/12/19 10:17:16;;;;;;;2.70;1.73;;;12.10;99.90;;;;;;5028006;28;20186;-92
2023/12/19 10:19:41;;;;;;;1.87;1.60;;;12.00;99.90;;;;;;5027451;28;20245;-92
2023/12/19 10:22:09;;;;;;;1.33;1.20;;;12.20;99.90;;;;;;5010736;28;20291;-90
2023/12/19 10:24:36;;;;;;;2.60;1.27;;;12.10;99.90;;;;;;5027250;28;20238;-92
2023/12/19 10:27:03;;;;;;;1.80;1.70;;;12.20;99.90;;;;;;5028004;28;20638;-92
2023/12/19 10:29:36;;;;;;;1.33;1.23;;;12.20;99.90;;;;;;5026962;28;20260;-92
2023/12/19 10:32:34;;;;;;;3.00;2.77;;;12.10;99.90;;;;;;5027346;28;20781;-91
2023/12/19 10:35:01;;;;;;;1.13;0.87;;;12.30;99.90;;;;;;4989932;28;20225;-92
2023/12/19 10:37:27;;;;;;;1.30;1.20;;;12.30;99.90;;;;;;5027202;28;20217;-93
2023/12/19 10:40:09;;;;;;;1.33;1.33;;;12.20;99.90;;;;;;4998716;28;20779;-91
2023/12/19 10:42:36;;;;;;;2.47;1.50;;;12.20;99.90;;;;;;5007413;28;20218;-92
2023/12/19 10:45:05;;;;;;;1.00;0.97;;;12.30;99.90;;;;;;5025080;28;20668;-93
2023/12/19 10:47:31;;;;;;;0.60;0.60;;;12.50;99.90;;;;;;5026537;28;20185;-92
2023/12/19 10:49:56;;;;;;;0.93;0.67;;;12.40;99.90;;;;;;5027229;28;20202;-92
2023/12/19 10:52:27;;;;;;;1.13;0.70;;;12.50;99.90;;;;;;5026265;28;20575;-92
2023/12/19 10:55:04;;;;;;;1.23;1.10;;;12.30;99.90;;;;;;5027524;28;20233;-94
2023/12/19 10:57:34;;;;;;;1.43;1.33;;;12.50;99.90;;;;;;5026749;28;20225;-93
2023/12/19 11:00:21;;;;;;;0.57;0.50;;;12.30;99.90;;;;;;5024855;28;20193;-96
2023/12/19 11:03:06;;;;;;;1.27;0.60;;;12.30;99.90;;;;;;5026003;28;20300;-92
2023/12/19 11:05:46;;;;;;;1.40;1.20;;;12.30;99.90;;;;;;5028043;28;20190;-93
2023/12/19 11:08:17;;;;;;;0.60;0.60;;;12.40;99.90;;;;;;5011501;28;20218;-92
2023/12/19 11:11:09;;;;;;;1.07;1.00;;;12.30;99.90;;;;;;5035105;28;20747;-94
2023/12/19 11:13:35;;;;;;;0.80;0.80;;;12.20;99.90;;;;;;5027208;28;20256;-91
2023/12/19 11:16:21;;;;;;;3.77;1.97;;;12.10;99.90;;;;;;5026278;28;20268;-91
2023/12/19 11:18:57;;;;;;;1.77;1.67;;;12.20;99.90;;;;;;5026159;28;20224;-90
2023/12/19 11:21:58;;;;;;;2.93;1.40;;;12.10;99.90;;;;;;5046314;28;20537;-95
2023/12/19 11:24:29;;;;;;;1.33;1.23;;;12.10;99.90;;;;;;5024894;28;20229;-91
2023/12/19 11:27:11;;;;;;;1.10;0.97;;;12.10;99.90;;;;;;5023000;28;20178;-90
2023/12/19 11:29:46;;;;;;;1.33;1.00;;;12.00;99.90;;;;;;5041611;28;20233;-92
2023/12/19 11:32:28;;;;;;;0.87;0.40;;;11.90;99.90;;;;;;5041153;28;20216;-90
2023/12/19 11:35:14;;;;;;;1.03;1.03;;;11.80;99.90;;;;;;5042611;28;20702;-90
2023/12/19 11:37:43;;;;;;;0.50;0.50;;;11.80;99.90;;;;;;5026373;28;20221;-90
2023/12/19 11:40:18;;;;;;;1.10;1.00;;;11.90;99.90;;;;;;5034574;28;20344;-90
2023/12/19 11:42:46;;;;;;;0.53;0.53;;;11.80;99.90;;;;;;5025607;28;20324;-90
2023/12/19 11:45:17;;;;;;;0.20;0.20;;;11.70;99.90;;;;;;5002848;28;20254;-90
2023/12/19 11:47:47;;;;;;;0.70;0.30;;;11.60;99.90;;;;;;5042515;28;20267;-90
2023/12/19 11:50:38;;;;;;;0.40;0.40;;;11.70;99.90;;;;;;5025705;28;21417;-91
2023/12/19 11:53:04;;;;;;;0.60;0.40;;;11.60;99.90;;;;;;5042179;28;20216;-89
2023/12/19 11:55:30;;;;;;;0.47;0.47;;;11.50;99.90;;;;;;4992851;28;20240;-91
2023/12/19 11:58:13;;;;;;;0.77;0.77;;;11.40;99.90;;;;;;5025638;28;20229;-90
2023/12/19 12:00:39;;;;;;;0.20;0.20;;;11.50;99.90;;;;;;5025120;28;20356;-90
2023/12/19 12:03:09;;;;;;;0.30;0.30;;;11.40;99.90;;;;;;5009438;28;20221;-90
2023/12/19 12:05:36;;;;;;;0.20;0.20;;;11.50;99.90;;;;;;5002729;28;20189;-93
2023/12/19 12:08:03;;;;;;;0.90;0.57;;;11.60;99.90;;;;;;5010489;28;20550;-94
2023/12/19 12:10:29;;;;;;;0.50;0.50;;;11.60;99.90;;;;;;5044717;28;20287;-93
2023/12/19 12:12:58;;;;;;;0.67;0.67;;;11.50;99.90;;;;;;5025988;28;20348;-90
2023/12/19 12:15:25;;;;;;;0.20;0.20;;;11.30;99.90;;;;;;5042548;28;20210;-91
2023/12/19 12:18:01;;;;;;;4.17;0.80;;;11.50;99.90;;;;;;5025795;28;20974;-88
2023/12/19 12:20:32;;;;;;;0.20;0.20;;;11.40;99.90;;;;;;5024654;28;20208;-90
2023/12/19 12:22:58;;;;;;;0.83;0.83;;;11.50;99.90;;;;;;5025600;28;20230;-89
2023/12/19 12:25:24;;;;;;;0.20;0.20;;;11.50;99.90;;;;;;5022751;28;20299;-89
2023/12/19 12:27:56;;;;;;;3.90;0.40;;;11.50;99.90;;;;;;5008062;28;20539;-89
2023/12/19 12:30:31;;;;;;;1.23;0.27;;;11.40;99.90;;;;;;5042057;28;20372;-90
2023/12/19 12:32:57;;;;;;;0.40;0.40;;;11.50;99.90;;;;;;5040779;28;20258;-91
2023/12/19 12:35:33;;;;;;;0.30;0.30;;;11.40;99.90;;;;;;5025624;28;20642;-91
2023/12/19 12:38:07;;;;;;;0.20;0.20;;;11.40;99.90;;;;;;5025462;28;20210;-91
2023/12/19 12:40:36;;;;;;;0.20;0.20;;;11.40;99.90;;;;;;5024733;28;20218;-89
2023/12/19 12:43:49;;;;;;;0.20;0.20;;;11.40;99.90;;;;;;5025848;28;20283;-90
2023/12/19 12:46:18;;;;;;;0.30;0.30;;;11.40;99.90;;;;;;4944220;28;20251;-90
2023/12/19 12:49:05;;;;;;;0.20;0.20;;;11.30;99.90;;;;;;4960637;28;20224;-89